Time;durP1;ratioP1;P1;durP2;ratioP2;P2;SDS_P1;SDS_P2;PMS_P1;PMS_P2;Temp;Humidity;BMP_temperature;BMP_pressure;BME280_temperature;BME280_humidity;BME280_pressure;Samples;Min_cycle;Max_cycle;Signal;HPM_P1;HPM_P2
2021/11/12 00:02:19;;;;;;;5.57;2.92;;;10.10;91.80;;;;;;4962640;28;20492;-80
2021/11/12 00:16:02;;;;;;;6.82;3.20;;;10.00;91.90;;;;;;4923948;28;20142;-79
2021/11/12 00:18:31;;;;;;;6.88;3.42;;;10.00;91.90;;;;;;4935925;28;20074;-79
2021/11/12 00:21:00;;;;;;;6.07;2.92;;;10.00;91.90;;;;;;4947479;28;20043;-77
2021/11/12 00:23:29;;;;;;;6.78;3.22;;;10.10;92.20;;;;;;4959196;28;20117;-77
2021/11/12 00:25:57;;;;;;;5.70;3.22;;;10.10;91.90;;;;;;4948769;28;20071;-77
2021/11/12 00:28:27;;;;;;;5.75;3.25;;;10.10;91.90;;;;;;4932154;28;20051;-77
2021/11/12 00:42:02;;;;;;;5.57;3.33;;;10.10;91.90;;;;;;4945283;28;20126;-77
2021/11/12 00:44:36;;;;;;;6.45;3.20;;;10.00;91.90;;;;;;4947833;28;20051;-77
2021/11/12 00:47:18;;;;;;;5.22;2.97;;;10.00;91.90;;;;;;4942221;28;20098;-77
2021/11/12 00:49:58;;;;;;;5.28;2.88;;;10.00;91.80;;;;;;4932511;28;20039;-77
2021/11/12 00:52:42;;;;;;;5.45;3.10;;;10.00;91.90;;;;;;4957319;28;20055;-77
2021/11/12 00:55:10;;;;;;;8.07;3.53;;;10.00;91.90;;;;;;4939034;28;20047;-77
2021/11/12 00:57:37;;;;;;;6.90;3.83;;;10.00;91.90;;;;;;4962613;28;20102;-77
2021/11/12 01:00:06;;;;;;;6.88;3.17;;;10.00;91.90;;;;;;4948948;28;20138;-77
2021/11/12 01:02:34;;;;;;;5.78;3.60;;;10.00;91.90;;;;;;4947656;28;20047;-77
2021/11/12 01:05:03;;;;;;;6.60;3.85;;;10.00;91.90;;;;;;4943464;28;20134;-77
2021/11/12 01:07:30;;;;;;;7.82;3.60;;;10.00;91.80;;;;;;4964985;28;20596;-77
2021/11/12 01:09:58;;;;;;;8.15;4.85;;;10.00;91.90;;;;;;4944725;28;20064;-77
2021/11/12 01:12:26;;;;;;;7.00;4.00;;;10.00;91.90;;;;;;4957484;28;20047;-77
2021/11/12 01:14:54;;;;;;;6.93;3.83;;;10.00;91.80;;;;;;4949030;28;20043;-79
2021/11/12 01:17:22;;;;;;;8.00;4.50;;;10.10;91.90;;;;;;4938560;28;20074;-80
2021/11/12 01:19:50;;;;;;;6.97;3.90;;;10.10;91.80;;;;;;4964512;28;20157;-80
2021/11/12 01:22:17;;;;;;;7.13;3.45;;;10.10;91.80;;;;;;4957207;28;20043;-80
2021/11/12 01:24:45;;;;;;;6.68;4.15;;;10.10;91.90;;;;;;4951549;28;20050;-80
2021/11/12 01:27:12;;;;;;;6.80;3.78;;;10.00;91.90;;;;;;4939136;28;20111;-80
2021/11/12 01:29:39;;;;;;;8.27;3.88;;;10.00;91.80;;;;;;4958483;28;20061;-79
2021/11/12 01:32:20;;;;;;;8.15;4.28;;;10.00;91.80;;;;;;4956952;28;20065;-79
2021/11/12 01:34:53;;;;;;;6.90;3.92;;;10.00;91.80;;;;;;4962907;28;20457;-79
2021/11/12 01:37:23;;;;;;;7.20;4.00;;;10.00;91.80;;;;;;4963078;28;20078;-79
2021/11/12 01:39:58;;;;;;;6.47;3.72;;;10.00;91.90;;;;;;4949957;28;20047;-79
2021/11/12 01:42:47;;;;;;;6.88;3.35;;;10.00;91.90;;;;;;4964584;28;20089;-79
2021/11/12 01:45:15;;;;;;;5.90;3.45;;;10.00;91.90;;;;;;4947108;28;20051;-79
2021/11/12 01:47:56;;;;;;;6.70;3.70;;;10.00;91.90;;;;;;4969590;28;20154;-80
2021/11/12 01:50:25;;;;;;;6.68;3.75;;;10.00;91.90;;;;;;4960202;28;20467;-80
2021/11/12 01:52:57;;;;;;;5.63;3.22;;;10.00;91.90;;;;;;4964599;28;20763;-79
2021/11/12 01:55:44;;;;;;;8.65;3.60;;;10.00;91.90;;;;;;4959677;28;20085;-80
2021/11/12 02:00:50;;;;;;;7.38;3.72;;;10.00;91.90;;;;;;4946116;28;20032;-79
2021/11/12 02:03:18;;;;;;;6.50;3.58;;;10.00;91.90;;;;;;4967433;28;20411;-80
2021/11/12 02:05:45;;;;;;;8.73;4.57;;;10.00;91.90;;;;;;4962572;28;20483;-80
2021/11/12 02:08:12;;;;;;;8.43;4.22;;;10.00;91.90;;;;;;4936193;28;20118;-80
2021/11/12 02:10:39;;;;;;;7.97;4.22;;;9.90;91.90;;;;;;4961435;28;20440;-79
2021/11/12 02:13:15;;;;;;;7.05;4.20;;;9.90;91.90;;;;;;4954425;28;20039;-79
2021/11/12 02:15:43;;;;;;;7.25;3.75;;;9.90;91.90;;;;;;4943801;28;20134;-80
2021/11/12 02:18:15;;;;;;;7.25;4.40;;;9.90;91.90;;;;;;4963648;28;20054;-80
2021/11/12 02:20:58;;;;;;;9.45;4.72;;;9.90;92.00;;;;;;4961201;28;20712;-79
2021/11/12 02:23:35;;;;;;;8.35;4.97;;;9.80;91.90;;;;;;4943904;28;20085;-79
2021/11/12 02:26:03;;;;;;;8.07;4.00;;;9.80;92.00;;;;;;4948622;28;20050;-80
2021/11/12 02:28:30;;;;;;;8.43;4.97;;;9.80;92.00;;;;;;4951525;28;20043;-80
2021/11/12 02:30:58;;;;;;;7.00;3.40;;;9.80;92.00;;;;;;4930648;28;20091;-77
2021/11/12 02:33:26;;;;;;;7.45;3.33;;;9.70;92.30;;;;;;4949491;28;20049;-77
2021/11/12 02:36:08;;;;;;;8.00;4.05;;;9.70;92.00;;;;;;4960111;28;20086;-76
2021/11/12 02:38:39;;;;;;;6.80;4.00;;;9.70;92.00;;;;;;4964132;28;20047;-77
2021/11/12 02:41:07;;;;;;;5.75;3.33;;;9.60;92.10;;;;;;4957827;28;20122;-76
2021/11/12 02:43:35;;;;;;;8.25;3.65;;;9.60;92.10;;;;;;4973883;28;20493;-77
2021/11/12 02:46:04;;;;;;;6.72;3.30;;;9.60;92.10;;;;;;4939568;28;20051;-77
2021/11/12 02:48:36;;;;;;;10.38;5.28;;;9.60;92.10;;;;;;4955472;28;20039;-77
2021/11/12 02:51:05;;;;;;;9.55;5.40;;;9.50;92.10;;;;;;4951696;28;20082;-77
2021/11/12 02:53:32;;;;;;;10.68;4.30;;;9.40;92.10;;;;;;4960224;28;20054;-77
2021/11/12 02:56:03;;;;;;;9.20;4.70;;;9.40;92.10;;;;;;4952994;28;20053;-80
2021/11/12 02:58:31;;;;;;;7.78;4.60;;;9.40;92.40;;;;;;4939541;28;20106;-79
2021/11/12 03:00:59;;;;;;;6.60;3.30;;;9.40;92.10;;;;;;4951216;28;20040;-79
2021/11/12 03:03:28;;;;;;;8.25;3.92;;;9.40;92.20;;;;;;4947393;28;20539;-80
2021/11/12 03:05:56;;;;;;;11.20;6.53;;;9.40;92.10;;;;;;4946979;28;20077;-80
2021/11/12 03:08:23;;;;;;;7.57;4.13;;;9.30;92.10;;;;;;4945058;28;20054;-80
2021/11/12 03:10:52;;;;;;;8.82;4.30;;;9.30;92.10;;;;;;4961813;28;20475;-80
2021/11/12 03:13:19;;;;;;;7.22;3.67;;;9.30;92.20;;;;;;4946959;28;20079;-79
2021/11/12 03:15:46;;;;;;;7.97;3.90;;;9.30;92.20;;;;;;4943813;29;20039;-79
2021/11/12 03:18:14;;;;;;;10.15;5.43;;;9.30;92.20;;;;;;4949975;28;20074;-79
2021/11/12 03:20:42;;;;;;;9.25;5.00;;;9.20;92.10;;;;;;4964381;28;20400;-79
2021/11/12 03:23:22;;;;;;;12.38;6.53;;;9.20;92.10;;;;;;4937364;28;20062;-79
2021/11/12 03:26:06;;;;;;;10.52;6.00;;;9.20;92.10;;;;;;4939647;28;20400;-79
2021/11/12 04:01:43;;;;;;;9.95;5.07;;;9.00;92.10;;;;;;4945926;28;20392;-79
2021/11/12 04:06:56;;;;;;;7.75;4.95;;;8.90;92.00;;;;;;4963261;28;20396;-79
2021/11/12 04:20:58;;;;;;;10.27;5.97;;;8.80;92.00;;;;;;4959633;28;20593;-79
2021/11/12 05:02:58;;;;;;;10.43;5.45;;;7.80;92.20;;;;;;4962863;28;20457;-79
2021/11/12 05:50:57;;;;;;;6.95;3.78;;;6.50;92.40;;;;;;4951223;28;20122;-79
2021/11/12 05:56:10;;;;;;;6.95;3.95;;;6.50;92.40;;;;;;4951279;28;20049;-79
2021/11/12 05:58:37;;;;;;;6.40;3.53;;;6.50;92.40;;;;;;4965525;28;20098;-79
2021/11/12 06:01:04;;;;;;;9.75;4.75;;;6.50;92.40;;;;;;4964803;28;20078;-79
2021/11/12 06:03:31;;;;;;;8.40;5.20;;;6.40;92.40;;;;;;4948699;28;20367;-79
2021/11/12 06:05:58;;;;;;;10.77;5.93;;;6.40;92.40;;;;;;4959245;28;20055;-79
2021/11/12 06:08:25;;;;;;;9.93;5.60;;;6.40;92.40;;;;;;4963712;28;20494;-79
2021/11/12 06:10:52;;;;;;;7.90;4.82;;;6.30;92.40;;;;;;4947986;28;20039;-79
2021/11/12 06:13:19;;;;;;;8.27;4.60;;;6.30;92.50;;;;;;4958304;28;20036;-80
2021/11/12 06:15:46;;;;;;;7.55;4.38;;;6.20;92.50;;;;;;4936976;28;20074;-80
2021/11/12 06:18:13;;;;;;;8.07;4.88;;;6.20;92.50;;;;;;4947677;28;20051;-79
2021/11/12 06:20:41;;;;;;;8.23;4.93;;;6.20;92.50;;;;;;4948818;28;20047;-79
2021/11/12 06:23:08;;;;;;;7.90;4.40;;;6.20;92.50;;;;;;4931109;28;20532;-80
2021/11/12 06:25:35;;;;;;;7.72;4.45;;;6.10;92.50;;;;;;4945882;28;21396;-80
2021/11/12 06:28:02;;;;;;;8.75;5.00;;;6.10;92.60;;;;;;4965529;28;20066;-80
2021/11/12 06:30:29;;;;;;;9.02;4.88;;;6.10;92.50;;;;;;4936157;28;20042;-79
2021/11/12 06:32:56;;;;;;;7.60;4.03;;;6.00;92.50;;;;;;4943085;28;20121;-79
2021/11/12 06:35:23;;;;;;;8.65;5.00;;;6.10;92.50;;;;;;4944813;28;20826;-77
2021/11/12 06:37:50;;;;;;;8.18;5.00;;;6.00;92.50;;;;;;4962328;28;20047;-77
2021/11/12 06:40:20;;;;;;;8.40;5.38;;;6.00;92.50;;;;;;4963071;28;20137;-77
2021/11/12 06:43:22;;;;;;;9.27;5.03;;;5.90;92.70;;;;;;4946937;28;20055;-77
2021/11/12 06:51:14;;;;;;;7.55;4.10;;;5.90;92.60;;;;;;4940643;28;20680;-77
2021/11/12 06:53:41;;;;;;;7.82;4.35;;;5.80;92.60;;;;;;4931615;28;20039;-77
2021/11/12 06:56:08;;;;;;;7.97;4.20;;;5.80;92.60;;;;;;4949986;28;20035;-77
2021/11/12 06:58:38;;;;;;;7.00;3.67;;;5.80;92.70;;;;;;4940506;28;20747;-77
2021/11/12 07:01:05;;;;;;;7.13;3.78;;;5.80;92.60;;;;;;4962319;28;20530;-77
2021/11/12 07:03:32;;;;;;;6.70;4.05;;;5.80;92.60;;;;;;4941260;28;20149;-77
2021/11/12 07:06:00;;;;;;;7.45;4.20;;;5.70;92.60;;;;;;4946436;28;20675;-77
2021/11/12 07:08:27;;;;;;;6.00;3.55;;;5.70;92.60;;;;;;4944167;28;20055;-77
2021/11/12 07:10:56;;;;;;;6.05;3.17;;;5.70;92.60;;;;;;4952539;28;21604;-78
2021/11/12 07:13:25;;;;;;;7.13;3.58;;;5.70;92.60;;;;;;4959170;28;20043;-77
2021/11/12 07:15:53;;;;;;;5.60;3.03;;;5.70;92.60;;;;;;4945867;28;20101;-78
2021/11/12 07:18:20;;;;;;;5.45;3.00;;;5.70;92.60;;;;;;4948820;28;20053;-77
2021/11/12 07:20:49;;;;;;;5.97;3.05;;;5.70;92.50;;;;;;4963524;28;20390;-78
2021/11/12 07:23:17;;;;;;;5.97;3.17;;;5.70;92.60;;;;;;4949208;28;20051;-78
2021/11/12 07:25:44;;;;;;;6.60;3.90;;;5.70;92.60;;;;;;4949926;28;20059;-77
2021/11/12 07:28:11;;;;;;;8.68;4.15;;;5.70;92.50;;;;;;4934866;28;20110;-78
2021/11/12 07:30:41;;;;;;;7.75;4.28;;;5.70;92.50;;;;;;4945476;28;20054;-77
2021/11/12 07:33:12;;;;;;;7.72;4.47;;;5.60;92.50;;;;;;4947503;28;20069;-77
2021/11/12 07:35:54;;;;;;;8.60;4.82;;;5.60;92.50;;;;;;4960891;28;20058;-77
2021/11/12 07:38:25;;;;;;;8.32;4.45;;;5.60;92.50;;;;;;4959211;28;20075;-77
2021/11/12 07:48:33;;;;;;;9.88;5.07;;;5.50;92.50;;;;;;4943697;28;20043;-77
2021/11/12 07:51:00;;;;;;;8.32;5.40;;;5.50;92.40;;;;;;4959053;28;20042;-78
2021/11/12 07:53:27;;;;;;;8.45;4.40;;;5.50;92.40;;;;;;4932508;28;20059;-79
2021/11/12 07:55:54;;;;;;;6.97;3.95;;;5.50;92.40;;;;;;4945450;28;20043;-79
2021/11/12 07:58:21;;;;;;;10.23;5.03;;;5.50;92.50;;;;;;4957475;28;20051;-78
2021/11/12 08:00:49;;;;;;;8.57;4.75;;;5.50;92.50;;;;;;4937903;28;20053;-78
2021/11/12 08:03:18;;;;;;;9.25;4.57;;;5.50;92.40;;;;;;4958449;28;20065;-78
2021/11/12 08:05:50;;;;;;;6.35;3.85;;;5.50;92.50;;;;;;4944937;28;20133;-78
2021/11/12 08:08:23;;;;;;;7.80;4.15;;;5.50;92.50;;;;;;4963792;28;20042;-78
2021/11/12 08:10:59;;;;;;;8.45;3.38;;;5.50;92.40;;;;;;4945380;28;20039;-78
2021/11/12 08:13:41;;;;;;;7.15;3.50;;;5.50;92.40;;;;;;4960827;28;20043;-79
2021/11/12 08:16:50;;;;;;;6.95;4.13;;;5.50;92.40;;;;;;4945839;28;20039;-79
2021/11/12 08:22:03;;;;;;;6.30;3.47;;;5.50;92.40;;;;;;4942468;28;20476;-76
2021/11/12 08:27:33;;;;;;;6.75;3.63;;;5.50;92.40;;;;;;4958909;28;20515;-76
2021/11/12 08:33:11;;;;;;;6.45;3.40;;;5.60;92.40;;;;;;4965280;28;20035;-75
2021/11/12 08:41:11;;;;;;;7.10;3.38;;;5.60;92.40;;;;;;4959326;28;20055;-78
2021/11/12 08:43:46;;;;;;;6.95;3.90;;;5.70;92.40;;;;;;4941094;28;20073;-78
2021/11/12 08:51:21;;;;;;;8.35;3.97;;;5.70;92.30;;;;;;4947686;28;20488;-78
2021/11/12 08:53:49;;;;;;;6.78;3.35;;;5.70;92.30;;;;;;4934919;28;20105;-77
2021/11/12 08:56:18;;;;;;;7.82;3.92;;;5.70;92.30;;;;;;4951434;28;20043;-75
2021/11/12 08:58:48;;;;;;;8.40;4.60;;;5.80;92.30;;;;;;4952300;28;20056;-75
2021/11/12 09:01:16;;;;;;;7.97;4.28;;;5.80;92.20;;;;;;4942554;28;21308;-76
2021/11/12 09:03:45;;;;;;;7.65;4.07;;;5.80;92.20;;;;;;4938931;28;20067;-77
2021/11/12 09:06:13;;;;;;;7.72;4.00;;;5.80;92.20;;;;;;4962706;28;20058;-77
2021/11/12 09:08:40;;;;;;;7.47;4.35;;;5.80;92.20;;;;;;4959883;28;20110;-77
2021/11/12 09:11:09;;;;;;;8.23;3.78;;;5.80;92.20;;;;;;4951347;28;20126;-77
2021/11/12 09:13:59;;;;;;;11.68;5.45;;;5.90;92.20;;;;;;4960712;28;20450;-77
2021/11/12 09:16:31;;;;;;;8.48;4.45;;;5.90;92.20;;;;;;4964921;28;20109;-78
2021/11/12 09:19:03;;;;;;;7.60;3.72;;;5.90;92.20;;;;;;4960941;28;20043;-77
2021/11/12 09:21:33;;;;;;;9.73;5.53;;;5.90;92.20;;;;;;4945860;28;20460;-78
2021/11/12 09:24:00;;;;;;;9.57;4.93;;;5.90;92.10;;;;;;4941619;28;20051;-77
2021/11/12 09:26:28;;;;;;;8.77;4.97;;;6.00;92.10;;;;;;4949399;28;20075;-77
2021/11/12 09:28:55;;;;;;;9.50;4.72;;;5.90;92.10;;;;;;4961589;28;20051;-78
2021/11/12 09:31:22;;;;;;;10.55;5.55;;;6.00;92.10;;;;;;4939227;28;20138;-77
2021/11/12 09:33:51;;;;;;;8.32;4.93;;;6.00;92.10;;;;;;4961696;28;20154;-77
2021/11/12 09:36:18;;;;;;;10.43;4.82;;;6.00;92.10;;;;;;4936132;28;20069;-76
2021/11/12 09:38:46;;;;;;;11.50;5.28;;;6.00;92.10;;;;;;4940610;28;20055;-77
2021/11/12 09:41:13;;;;;;;10.25;5.55;;;6.00;92.00;;;;;;4944425;28;20058;-76
2021/11/12 09:43:40;;;;;;;10.52;4.53;;;6.00;92.00;;;;;;4932727;28;20110;-77
2021/11/12 09:46:10;;;;;;;9.57;5.05;;;6.10;92.00;;;;;;4928435;28;20094;-77
2021/11/12 09:48:39;;;;;;;11.15;6.05;;;6.10;92.00;;;;;;4939365;28;20035;-77
2021/11/12 09:51:07;;;;;;;13.63;6.13;;;6.10;92.00;;;;;;4958363;28;20379;-77
2021/11/12 09:53:34;;;;;;;9.95;5.95;;;6.10;92.00;;;;;;4948582;28;20075;-77
2021/11/12 09:56:02;;;;;;;11.98;5.72;;;6.10;91.90;;;;;;4967914;28;20046;-77
2021/11/12 09:58:33;;;;;;;10.48;5.35;;;6.20;91.90;;;;;;4961204;28;20066;-77
2021/11/12 10:01:00;;;;;;;14.45;7.38;;;6.20;92.00;;;;;;4962998;28;20869;-77
2021/11/12 10:03:33;;;;;;;12.13;6.78;;;6.20;91.90;;;;;;4948398;28;20039;-77
2021/11/12 10:06:23;;;;;;;11.07;5.97;;;6.20;91.80;;;;;;4959177;28;20058;-77
2021/11/12 10:08:51;;;;;;;10.93;5.57;;;6.30;91.80;;;;;;4965713;28;20034;-77
2021/11/12 10:11:31;;;;;;;12.70;6.38;;;6.30;91.80;;;;;;4963737;28;20114;-79
2021/11/12 10:14:40;;;;;;;14.23;7.45;;;6.30;92.10;;;;;;4963230;28;20050;-79
2021/11/12 10:17:10;;;;;;;16.08;7.95;;;6.30;91.90;;;;;;4966925;28;20392;-78
2021/11/12 10:19:48;;;;;;;13.75;7.10;;;6.30;91.80;;;;;;4959650;28;20042;-79
2021/11/12 10:22:17;;;;;;;10.65;6.28;;;6.40;92.00;;;;;;4950343;28;20132;-78
2021/11/12 10:24:53;;;;;;;11.90;6.78;;;6.40;91.80;;;;;;4964366;28;20067;-75
2021/11/12 10:27:28;;;;;;;10.18;5.80;;;6.40;91.70;;;;;;4938537;28;20065;-75
2021/11/12 10:29:59;;;;;;;11.15;6.72;;;6.50;91.70;;;;;;4959619;28;20682;-76
2021/11/12 10:32:32;;;;;;;9.23;5.03;;;6.50;91.70;;;;;;4957405;28;20047;-75
2021/11/12 10:35:07;;;;;;;10.23;5.43;;;6.50;91.70;;;;;;4962316;28;20035;-78
2021/11/12 10:37:39;;;;;;;9.60;5.10;;;6.50;91.70;;;;;;4957883;28;20130;-77
2021/11/12 10:40:35;;;;;;;10.20;5.67;;;6.60;91.60;;;;;;4947391;28;20132;-77
2021/11/12 10:43:02;;;;;;;10.35;5.25;;;6.60;91.60;;;;;;4953101;28;20482;-76
2021/11/12 10:45:34;;;;;;;10.13;5.25;;;6.60;91.60;;;;;;4953610;28;20129;-77
2021/11/12 10:48:06;;;;;;;12.07;6.40;;;6.60;91.60;;;;;;4965870;28;20051;-76
2021/11/12 10:50:38;;;;;;;13.00;7.57;;;6.60;91.60;;;;;;4961971;28;20105;-76
2021/11/12 10:53:12;;;;;;;11.85;6.45;;;6.60;91.80;;;;;;4957215;28;20066;-78
2021/11/12 10:55:45;;;;;;;11.80;5.85;;;6.70;91.60;;;;;;4939567;28;20039;-76
2021/11/12 10:58:20;;;;;;;11.65;6.05;;;6.70;91.50;;;;;;4960578;28;20051;-77
2021/11/12 11:00:50;;;;;;;12.43;6.72;;;6.80;91.50;;;;;;4958904;28;20066;-76
2021/11/12 11:03:20;;;;;;;11.55;5.90;;;6.90;91.50;;;;;;4961018;28;20479;-76
2021/11/12 11:05:56;;;;;;;11.10;6.22;;;6.90;91.40;;;;;;4953842;28;20063;-76
2021/11/12 11:08:25;;;;;;;10.60;5.68;;;6.90;91.40;;;;;;4951811;28;20047;-75
2021/11/12 11:10:55;;;;;;;11.07;6.20;;;7.00;91.40;;;;;;4952040;28;20042;-76
2021/11/12 11:13:25;;;;;;;11.57;6.25;;;7.10;91.40;;;;;;4960735;28;20042;-76
2021/11/12 11:15:58;;;;;;;11.57;5.65;;;7.10;91.30;;;;;;4957323;28;20057;-78
2021/11/12 11:18:51;;;;;;;10.75;5.60;;;7.20;91.30;;;;;;4968685;28;20502;-78
2021/11/12 11:24:03;;;;;;;15.07;8.13;;;7.30;91.20;;;;;;4963828;28;20543;-77
2021/11/12 11:26:43;;;;;;;13.02;7.47;;;7.40;91.20;;;;;;4944199;28;20074;-77
2021/11/12 11:29:20;;;;;;;12.05;7.63;;;7.50;91.10;;;;;;4963049;28;20038;-76
2021/11/12 11:31:48;;;;;;;15.05;8.18;;;7.60;91.10;;;;;;4960890;28;20051;-77
2021/11/12 11:34:15;;;;;;;15.60;7.28;;;7.60;91.00;;;;;;4931500;28;20052;-76
2021/11/12 11:36:45;;;;;;;14.15;8.40;;;7.70;91.00;;;;;;4962652;28;20066;-76
2021/11/12 11:39:17;;;;;;;13.93;7.90;;;7.70;90.90;;;;;;4959122;28;20134;-77
2021/11/12 11:41:45;;;;;;;;;;;7.80;90.90;;;;;;4943558;28;20051;-77
2021/11/12 11:44:20;;;;;;;11.30;6.35;;;7.90;90.90;;;;;;4958202;28;19931;-77
2021/11/12 11:46:52;;;;;;;10.13;5.38;;;7.90;90.80;;;;;;4964052;28;20073;-77
2021/11/12 11:49:21;;;;;;;;;;;8.00;90.80;;;;;;4959076;28;20039;-77
2021/11/12 11:51:57;;;;;;;10.93;5.93;;;8.00;90.80;;;;;;4962180;28;20075;-77
2021/11/12 11:54:26;;;;;;;12.07;6.60;;;8.10;90.80;;;;;;4955780;28;20044;-77
2021/11/12 11:56:59;;;;;;;11.95;6.25;;;8.20;90.70;;;;;;4945447;29;20062;-78
2021/11/12 11:59:30;;;;;;;13.18;6.38;;;8.20;90.60;;;;;;4938544;28;20050;-78
2021/11/12 12:02:01;;;;;;;11.05;5.68;;;8.30;90.60;;;;;;4945660;28;20559;-76
2021/11/12 12:04:32;;;;;;;11.57;7.00;;;8.40;90.60;;;;;;4943443;28;20055;-76
2021/11/12 12:07:02;;;;;;;13.43;7.53;;;8.40;90.50;;;;;;4962991;28;20073;-77
2021/11/12 12:09:45;;;;;;;11.35;6.28;;;8.50;90.50;;;;;;4962558;28;20110;-76
2021/11/12 12:12:14;;;;;;;10.68;5.88;;;8.50;90.50;;;;;;4960234;28;20053;-76
2021/11/12 12:14:42;;;;;;;10.90;5.80;;;8.50;90.50;;;;;;4955705;28;20162;-76
2021/11/12 12:17:26;;;;;;;13.45;6.82;;;8.50;90.50;;;;;;4949715;28;20043;-76
2021/11/12 12:20:00;;;;;;;14.70;7.80;;;8.60;90.40;;;;;;4960521;28;20500;-76
2021/11/12 12:34:01;;;;;;;12.40;7.15;;;8.60;90.40;;;;;;4957548;28;20066;-75
2021/11/12 13:25:46;;;;;;;11.48;6.18;;;8.80;90.20;;;;;;4957133;28;20047;-78
2021/11/12 13:28:21;;;;;;;10.23;5.53;;;8.90;90.20;;;;;;4945688;28;20046;-78
2021/11/12 13:30:53;;;;;;;11.48;5.97;;;8.80;90.20;;;;;;4947913;28;20955;-78
2021/11/12 13:33:32;;;;;;;9.87;5.93;;;8.90;90.20;;;;;;4962524;28;20408;-78
2021/11/12 13:36:21;;;;;;;13.15;6.22;;;8.90;90.20;;;;;;4955292;28;20559;-77
2021/11/12 13:38:53;;;;;;;12.27;6.60;;;9.00;90.10;;;;;;4965296;28;20077;-77
2021/11/12 13:41:43;;;;;;;11.02;5.60;;;8.90;90.10;;;;;;4948486;28;20043;-78
2021/11/12 13:44:24;;;;;;;13.57;7.60;;;8.90;90.10;;;;;;4963678;28;20063;-80
2021/11/12 13:46:59;;;;;;;11.30;7.05;;;8.90;90.10;;;;;;4968229;28;20043;-86
2021/11/12 13:49:34;;;;;;;14.20;7.70;;;8.90;90.10;;;;;;4968714;28;20129;-79
2021/11/12 13:52:03;;;;;;;14.05;6.72;;;8.90;90.10;;;;;;4971229;28;20435;-78
2021/11/12 13:54:52;;;;;;;11.98;6.88;;;8.80;90.10;;;;;;4952396;28;20035;-77
2021/11/12 13:57:22;;;;;;;15.48;7.75;;;8.80;90.10;;;;;;4965938;28;20055;-77
2021/11/12 13:59:51;;;;;;;12.68;6.72;;;8.80;90.10;;;;;;4942832;28;20117;-76
2021/11/12 14:02:18;;;;;;;14.35;7.55;;;8.80;90.20;;;;;;4966883;28;20039;-76
2021/11/12 14:04:45;;;;;;;12.30;7.18;;;8.80;90.20;;;;;;4960412;28;20141;-76
2021/11/12 14:07:30;;;;;;;15.57;7.72;;;8.80;90.20;;;;;;4949303;28;20584;-76
2021/11/12 14:10:30;;;;;;;12.30;6.70;;;8.80;90.20;;;;;;4928978;28;20514;-76
2021/11/12 14:12:58;;;;;;;11.82;6.75;;;8.80;90.20;;;;;;4956422;28;20047;-76
2021/11/12 14:15:30;;;;;;;8.90;5.63;;;8.70;90.20;;;;;;4945554;28;20122;-77
2021/11/12 14:47:14;;;;;;;13.57;6.75;;;8.30;90.40;;;;;;4957577;28;20077;-76
2021/11/12 14:49:34;;;;;;;13.27;7.20;;;8.30;90.50;;;;;;4962152;28;20466;-80
2021/11/12 14:54:35;;;;;;;14.90;7.78;;;8.20;90.50;;;;;;4959473;28;20054;-75
2021/11/12 14:57:06;;;;;;;13.75;5.82;;;8.20;90.50;;;;;;4944060;28;20050;-75
2021/11/12 14:59:35;;;;;;;13.35;5.85;;;8.20;90.50;;;;;;4965084;28;20057;-77
2021/11/12 15:02:06;;;;;;;10.85;5.60;;;8.20;90.50;;;;;;4961738;28;20081;-77
2021/11/12 15:04:34;;;;;;;10.63;5.38;;;8.20;90.60;;;;;;4965836;28;20050;-77
2021/11/12 15:07:01;;;;;;;9.93;5.20;;;8.20;90.60;;;;;;4946056;28;20097;-77
2021/11/12 15:09:30;;;;;;;12.27;6.05;;;8.10;90.60;;;;;;4944817;28;20071;-77
2021/11/12 15:12:01;;;;;;;12.48;5.80;;;8.10;90.60;;;;;;4951198;28;20054;-76
2021/11/12 15:14:35;;;;;;;10.80;5.53;;;8.10;90.60;;;;;;4937752;28;20078;-77
2021/11/12 15:17:06;;;;;;;10.18;5.22;;;8.10;90.60;;;;;;4942473;28;20038;-76
2021/11/12 15:19:39;;;;;;;9.95;4.50;;;8.10;90.60;;;;;;4962222;28;20058;-75
2021/11/12 15:30:34;;;;;;;9.73;4.82;;;8.00;90.70;;;;;;4946944;28;20535;-75
2021/11/12 15:33:06;;;;;;;9.93;4.80;;;8.00;90.70;;;;;;4966272;28;20038;-76
2021/11/12 15:35:34;;;;;;;9.23;5.00;;;8.00;90.70;;;;;;4961177;28;20050;-80
2021/11/12 15:38:17;;;;;;;8.02;4.47;;;7.90;91.00;;;;;;4954626;28;20502;-80
2021/11/12 15:40:48;;;;;;;9.25;5.25;;;7.90;90.80;;;;;;4950581;28;20047;-78
2021/11/12 15:43:30;;;;;;;9.32;4.05;;;7.90;90.80;;;;;;4962484;28;20051;-78
2021/11/12 15:46:09;;;;;;;8.27;4.43;;;7.80;90.80;;;;;;4955453;28;20039;-78
2021/11/12 15:48:39;;;;;;;8.10;4.93;;;7.80;90.90;;;;;;4956476;28;20480;-77
2021/11/12 15:54:18;;;;;;;6.72;4.05;;;7.70;90.90;;;;;;4959713;28;20038;-78
2021/11/12 16:08:04;;;;;;;8.00;4.30;;;7.60;91.00;;;;;;4959485;28;20058;-78
2021/11/12 16:13:09;;;;;;;8.07;4.30;;;7.60;91.10;;;;;;4960727;28;20086;-79
2021/11/12 16:16:16;;;;;;;8.07;3.97;;;7.50;91.10;;;;;;4942982;28;20280;-78
2021/11/12 16:24:10;;;;;;;;;;;7.50;91.10;;;;;;4948818;28;20415;-78
2021/11/12 16:26:42;;;;;;;6.68;2.95;;;7.50;91.10;;;;;;4943249;28;20411;-77
2021/11/12 16:31:41;;;;;;;6.13;2.97;;;7.50;91.20;;;;;;4960019;28;20051;-78
2021/11/12 16:34:14;;;;;;;6.82;3.75;;;7.50;91.10;;;;;;4945824;28;20175;-77
2021/11/12 16:36:55;;;;;;;7.03;3.90;;;7.50;91.10;;;;;;4960610;28;20109;-78
2021/11/12 16:39:28;;;;;;;6.90;2.95;;;7.50;91.10;;;;;;4950380;28;20054;-76
2021/11/12 16:42:10;;;;;;;6.80;3.15;;;7.50;91.10;;;;;;4952889;28;20126;-77
2021/11/12 16:44:46;;;;;;;6.43;3.45;;;7.50;91.20;;;;;;4944397;28;20071;-77
2021/11/12 16:50:24;;;;;;;7.63;2.95;;;7.50;91.20;;;;;;4960596;28;20039;-78
2021/11/12 17:04:29;;;;;;;7.55;4.22;;;7.50;91.20;;;;;;4927752;28;20055;-77
2021/11/12 17:07:03;;;;;;;7.75;3.67;;;7.50;91.20;;;;;;4950007;28;20125;-78
2021/11/12 17:09:49;;;;;;;7.60;3.17;;;7.50;91.20;;;;;;4938105;28;20043;-78
2021/11/12 17:12:28;;;;;;;6.80;3.60;;;7.50;91.20;;;;;;4940230;28;20051;-78
2021/11/12 17:45:31;;;;;;;5.85;2.60;;;7.50;91.30;;;;;;4951313;28;20045;-79
2021/11/12 17:48:06;;;;;;;4.75;2.28;;;7.50;91.30;;;;;;4960681;28;20738;-84
2021/11/12 17:51:04;;;;;;;4.65;2.00;;;7.50;91.30;;;;;;4948461;28;20051;-83
2021/11/12 18:04:41;;;;;;;3.60;1.98;;;7.50;91.40;;;;;;4967675;28;20134;-78
2021/11/12 21:45:18;;;;;;;3.35;1.60;;;9.20;91.20;;;;;;4960758;28;20066;-81
2021/11/12 21:47:46;;;;;;;5.53;2.50;;;9.20;91.30;;;;;;4956627;28;20032;-81
2021/11/12 21:50:13;;;;;;;4.40;2.38;;;9.20;91.30;;;;;;4937478;28;20138;-78
2021/11/12 21:52:40;;;;;;;5.00;2.25;;;9.30;91.30;;;;;;4955708;28;20411;-78
2021/11/12 21:55:07;;;;;;;4.07;1.65;;;9.20;91.30;;;;;;4938343;28;20437;-78
2021/11/12 21:57:35;;;;;;;4.05;1.67;;;9.30;91.30;;;;;;4946329;28;20055;-79
2021/11/12 22:00:06;;;;;;;4.63;1.85;;;9.30;91.30;;;;;;4967353;28;20057;-79
2021/11/12 22:02:38;;;;;;;3.88;1.63;;;9.30;91.30;;;;;;4961443;28;20133;-78
2021/11/12 22:05:06;;;;;;;4.70;2.40;;;9.30;91.30;;;;;;4957607;28;20519;-80
2021/11/12 22:07:36;;;;;;;4.93;2.38;;;9.30;91.30;;;;;;4949294;28;20542;-80
2021/11/12 22:10:07;;;;;;;6.88;3.22;;;9.40;91.30;;;;;;4950219;28;20055;-84
2021/11/12 22:12:35;;;;;;;5.07;2.60;;;9.40;91.30;;;;;;4943750;28;20054;-85
2021/11/12 22:15:03;;;;;;;4.80;2.47;;;9.40;91.30;;;;;;4963654;28;20046;-83
2021/11/12 22:17:30;;;;;;;5.05;2.67;;;9.40;91.30;;;;;;4956266;28;20051;-81
2021/11/12 22:19:58;;;;;;;5.93;2.97;;;9.50;91.30;;;;;;4945022;28;20070;-80
2021/11/12 22:22:25;;;;;;;6.55;3.55;;;9.50;91.30;;;;;;4948483;28;20483;-79
2021/11/12 22:24:52;;;;;;;6.10;3.08;;;9.50;91.30;;;;;;4937184;28;20042;-82
2021/11/12 22:27:19;;;;;;;6.53;3.72;;;9.50;91.30;;;;;;4945564;28;20055;-80
2021/11/12 22:29:46;;;;;;;9.07;4.60;;;9.60;91.30;;;;;;4940329;28;20109;-80
2021/11/12 22:32:19;;;;;;;8.48;4.65;;;9.60;91.30;;;;;;4947660;28;20039;-79
2021/11/12 22:34:46;;;;;;;7.68;4.57;;;9.60;91.20;;;;;;4953995;28;20447;-79
2021/11/12 22:37:13;;;;;;;11.60;6.25;;;9.70;91.30;;;;;;4959214;28;20030;-79
2021/11/12 22:39:40;;;;;;;10.55;4.45;;;9.70;91.20;;;;;;4946015;28;20074;-80
2021/11/12 22:42:09;;;;;;;8.10;4.57;;;9.70;91.20;;;;;;4954816;28;20526;-78
2021/11/12 22:44:36;;;;;;;9.43;5.47;;;9.70;91.20;;;;;;4945503;28;20047;-79
2021/11/12 22:47:04;;;;;;;10.57;5.60;;;9.80;91.30;;;;;;4945474;28;20047;-80
2021/11/12 22:49:32;;;;;;;10.07;5.68;;;9.80;91.20;;;;;;4944821;28;20472;-79
2021/11/12 22:51:59;;;;;;;9.10;5.30;;;9.80;91.20;;;;;;4967537;28;20047;-79
2021/11/12 22:54:26;;;;;;;10.20;5.47;;;9.80;91.20;;;;;;4959835;28;20050;-78
2021/11/12 22:56:53;;;;;;;11.55;6.22;;;9.80;91.20;;;;;;4959518;28;20499;-78
2021/11/12 22:59:20;;;;;;;10.82;6.32;;;9.80;91.20;;;;;;4958020;28;20451;-79
2021/11/12 23:01:47;;;;;;;10.85;6.00;;;9.80;91.30;;;;;;4933423;28;20140;-79
2021/11/12 23:04:14;;;;;;;9.48;5.35;;;9.80;91.20;;;;;;4948101;28;20134;-79
2021/11/12 23:06:42;;;;;;;7.72;4.93;;;9.80;91.30;;;;;;4952497;28;20459;-79
2021/11/12 23:09:10;;;;;;;9.73;5.10;;;9.80;91.30;;;;;;4944182;28;20047;-77
2021/11/12 23:11:42;;;;;;;8.70;3.90;;;9.80;91.30;;;;;;4945172;28;20042;-79